Augusta Regional At Bush Field
KAGS : now visible

Airfield :











YOU CAN JOIN US ON...

 
LOGIN :

Register | Disclaimer

   EN    FR    IT 

 









Legend :    VFR   Marginal VFR   IFR   Intensive IFR   Very Intensive IFR
Visi :
Ceiling :
>= 8 km
>= 3000ft
5 to 8 km
1000 to 3000 ft
1500m to 5 km
500 to 1000 ft
800 to 1500m
200 to 500 ft
< 800m
< 200 ft
Symbols :   Thunderstorms  Fog  Heavy snow  Heavy precipitations  Wind > 20 kt






- Airport Elevation : 144 ft
- IATA code : AGS


KAGS - Augusta Regional At Bush Field

CURRENT METAR :
  • 250453Z 18004KT 9SM -RA SCT048 SCT065 OVC090 22/20 A2993 RMK AO2 RAB27 SLP133 P0001 T02170200 402940156

EXPIRED METARs :
  • 250353Z 12005KT 10SM BKN075 OVC110 22/20 A2994 RMK AO2 SLP136 T02220200
  • 250253Z 15006KT 10SM OVC100 23/19 A2994 RMK AO2 SLP137 T02280194 53009

TAF KAGS
Valid from the 25 at 02:00 until the 26 at 00:00 UTC


250208Z 2502/2524 14005KT P6SM VCSH SCT035 OVC100
FM250300 00000KT P6SM -SHRA OVC040
FM250500 00000KT 4SM -SHRA BR OVC015
FM250900 00000KT 2SM -SHRA BR OVC007
FM251400 VRB04KT P6SM OVC015
FM252000 VRB03KT P6SM SCT020 BKN035
KZTL FIR / North America



MET'MAP, your aeronautical weather chart ! - Copyright ORBIFLY December 2007 - Disclaimer

ORBIFLY MET'MAP TEAM :

Programming & Development : Alexandra Zaïnal
Concept & original design : Baudouin d'Aumeries
Assistance for programming : Marc-Olivier Méhu
Technical & hardware support : Manuel Goepfert

Contact : metmap@orbifly.com




SOURCES & CREDITS :

   NOAA       Earth
Advisory